createdAt,value
2023-05-23T00:02:12.734Z,21.77
2023-05-23T00:06:14.235Z,22.07
2023-05-23T00:10:15.455Z,24.40
2023-05-23T00:14:17.266Z,27.00
2023-05-23T00:18:18.464Z,28.50
2023-05-23T00:22:19.685Z,30.83
2023-05-23T00:26:21.286Z,29.17
2023-05-23T00:30:22.458Z,29.27
2023-05-23T00:34:23.682Z,27.33
2023-05-23T00:38:26.314Z,25.73
2023-05-23T00:42:28.027Z,21.37
2023-05-23T00:46:31.880Z,22.90
2023-05-23T00:50:33.539Z,25.80
2023-05-23T00:54:36.143Z,30.60
2023-05-23T00:58:38.455Z,31.30
2023-05-23T01:02:44.413Z,28.90
2023-05-23T01:06:46.266Z,27.27
2023-05-23T01:10:48.395Z,26.63
2023-05-23T01:15:08.802Z,27.33
2023-05-23T01:19:30.952Z,28.87
2023-05-23T01:23:55.999Z,28.87
2023-05-23T01:28:03.692Z,29.03
2023-05-23T01:32:08.594Z,31.00
2023-05-23T01:36:13.237Z,32.00
2023-05-23T01:40:14.446Z,34.43
2023-05-23T01:44:15.935Z,41.00
2023-05-23T01:48:18.069Z,35.93
2023-05-23T01:52:20.758Z,36.83
2023-05-23T01:56:22.248Z,38.60
2023-05-23T02:00:23.687Z,36.50
2023-05-23T02:04:24.989Z,38.10
2023-05-23T02:08:26.203Z,36.83
2023-05-23T02:12:27.406Z,39.13
2023-05-23T02:16:28.637Z,44.07
2023-05-23T02:20:29.850Z,39.43
2023-05-23T02:24:31.098Z,37.53
2023-05-23T02:28:32.277Z,36.17
2023-05-23T02:32:33.505Z,34.93
2023-05-23T02:36:36.491Z,36.33
2023-05-23T02:40:37.733Z,35.23
2023-05-23T02:44:38.922Z,31.87
2023-05-23T02:48:40.122Z,33.40
2023-05-23T02:52:44.518Z,34.97
2023-05-23T02:56:46.142Z,37.20
2023-05-23T03:00:47.360Z,34.30
2023-05-23T03:04:48.939Z,35.17
2023-05-23T03:08:50.462Z,32.60
2023-05-23T03:12:51.825Z,32.43
2023-05-23T03:16:53.270Z,34.90
2023-05-23T03:20:54.656Z,33.73
2023-05-23T03:24:56.214Z,34.73
2023-05-23T03:28:57.653Z,35.37
2023-05-23T03:32:59.026Z,34.33
2023-05-23T03:37:00.467Z,34.60
2023-05-23T03:41:01.853Z,32.90
2023-05-23T03:45:03.750Z,31.07
2023-05-23T03:49:05.112Z,31.93
2023-05-23T03:53:06.770Z,32.87
2023-05-23T03:57:08.428Z,27.43
2023-05-23T04:01:10.144Z,28.37
2023-05-23T04:05:12.945Z,25.60
2023-05-23T04:09:14.522Z,24.67
2023-05-23T04:13:15.935Z,20.10
2023-05-23T04:17:18.007Z,23.40
2023-05-23T04:21:19.350Z,24.97
2023-05-23T04:25:20.545Z,23.10
2023-05-23T04:29:22.036Z,24.27
2023-05-23T04:33:23.740Z,21.90
2023-05-23T04:37:25.476Z,23.07
2023-05-23T04:41:27.604Z,24.90
2023-05-23T04:45:28.998Z,23.97
2023-05-23T04:49:32.139Z,21.60
2023-05-23T04:53:34.406Z,22.20
2023-05-23T04:57:35.621Z,23.37
2023-05-23T05:01:38.686Z,21.30
2023-05-23T05:05:40.068Z,21.97
2023-05-23T05:09:41.277Z,23.10
2023-05-23T05:13:42.478Z,22.20
2023-05-23T05:17:45.677Z,23.07
2023-05-23T05:21:47.621Z,26.07
2023-05-23T05:25:48.891Z,23.20
2023-05-23T05:29:50.088Z,24.47
2023-05-23T05:33:51.319Z,21.70
2023-05-23T05:37:52.519Z,23.47
2023-05-23T05:41:55.774Z,24.27
2023-05-23T05:45:57.045Z,23.03
2023-05-23T05:49:58.298Z,23.97
2023-05-23T05:53:59.635Z,23.97
2023-05-23T05:58:00.841Z,25.30
2023-05-23T06:02:02.070Z,23.77
2023-05-23T06:06:03.288Z,24.37
2023-05-23T06:10:05.469Z,23.97
2023-05-23T06:14:07.277Z,25.00
2023-05-23T06:18:09.035Z,23.63
2023-05-23T06:22:10.258Z,23.87
2023-05-23T06:26:11.454Z,19.83
2023-05-23T06:30:13.893Z,20.43
2023-05-23T06:34:16.013Z,19.30
2023-05-23T06:38:17.869Z,15.90
2023-05-23T06:42:19.511Z,16.03
2023-05-23T06:46:20.737Z,15.00
2023-05-23T06:50:22.250Z,14.07
2023-05-23T06:54:23.473Z,12.10
2023-05-23T06:58:24.665Z,11.47
2023-05-23T07:02:25.928Z,10.90
2023-05-23T07:06:27.235Z,11.10
2023-05-23T07:10:28.502Z,9.80
2023-05-23T07:14:29.762Z,8.63
2023-05-23T07:18:31.055Z,11.17
2023-05-23T07:22:32.164Z,10.20
2023-05-23T07:26:33.260Z,8.27
2023-05-23T07:30:34.502Z,8.57
2023-05-23T07:34:35.732Z,7.83
2023-05-23T07:38:36.939Z,7.70
2023-05-23T07:42:38.182Z,6.80
2023-05-23T07:46:39.474Z,7.27
2023-05-23T07:50:41.003Z,8.03
2023-05-23T07:54:42.891Z,8.37
2023-05-23T07:58:44.124Z,8.37
2023-05-23T08:02:45.367Z,8.63
2023-05-23T08:07:03.647Z,9.60
2023-05-23T08:10:49.726Z,9.80
2023-05-23T08:14:52.404Z,9.70
2023-05-23T08:18:53.992Z,9.37
2023-05-23T08:23:00.151Z,9.73
2023-05-23T08:27:01.310Z,10.57
2023-05-23T08:31:02.851Z,9.30
2023-05-23T08:35:05.225Z,8.67
2023-05-23T08:39:06.478Z,8.77
2023-05-23T08:43:09.623Z,7.67
2023-05-23T08:47:13.919Z,7.97
2023-05-23T08:51:17.153Z,7.77
2023-05-23T08:55:18.994Z,7.10
2023-05-23T08:59:21.405Z,7.17
2023-05-23T09:03:25.139Z,7.17
2023-05-23T09:07:28.584Z,7.10
2023-05-23T09:11:33.490Z,6.67
2023-05-23T09:15:35.936Z,6.80
2023-05-23T09:19:40.703Z,7.43
2023-05-23T09:23:42.001Z,5.47
2023-05-23T09:27:45.668Z,6.00
2023-05-23T09:31:47.026Z,5.97
2023-05-23T09:35:48.305Z,4.73
2023-05-23T09:39:50.332Z,5.33
2023-05-23T09:43:53.432Z,6.00
2023-05-23T09:47:54.828Z,5.73
2023-05-23T09:52:00.683Z,5.27
2023-05-23T09:56:03.163Z,6.37
2023-05-23T10:00:06.396Z,5.83
2023-05-23T10:04:08.968Z,5.63
2023-05-23T10:08:29.811Z,5.60
2023-05-23T10:12:37.862Z,5.87
2023-05-23T10:16:55.888Z,5.53
2023-05-23T10:21:00.843Z,5.70
2023-05-23T10:25:04.793Z,6.13
2023-05-23T10:29:06.710Z,4.53
2023-05-23T10:33:09.080Z,4.80
2023-05-23T10:37:14.187Z,4.57
2023-05-23T10:41:25.566Z,5.13
2023-05-23T10:45:26.804Z,4.27
2023-05-23T10:49:42.377Z,5.63
2023-05-23T10:53:45.852Z,5.60
2023-05-23T10:57:51.108Z,5.90
2023-05-23T11:01:52.484Z,4.80
2023-05-23T11:05:53.639Z,5.10
2023-05-23T11:10:13.818Z,5.50
2023-05-23T11:14:15.314Z,5.00
2023-05-23T11:18:21.504Z,4.03
2023-05-23T11:22:29.278Z,4.57
2023-05-23T11:26:31.822Z,4.80
2023-05-23T11:30:36.561Z,5.20
2023-05-23T11:34:38.636Z,5.03
2023-05-23T11:38:39.891Z,5.40
2023-05-23T11:42:42.577Z,5.97
2023-05-23T11:46:48.142Z,5.37
2023-05-23T11:50:51.333Z,5.60
2023-05-23T11:54:54.795Z,4.83
2023-05-23T11:58:57.036Z,5.13
2023-05-23T12:02:58.326Z,4.53
2023-05-23T12:07:01.506Z,4.40
2023-05-23T12:11:02.943Z,3.80
2023-05-23T12:15:04.686Z,3.87
2023-05-23T12:19:06.187Z,3.47
2023-05-23T12:23:07.411Z,4.47
2023-05-23T12:27:09.726Z,4.23
2023-05-23T12:31:13.057Z,5.33
2023-05-23T12:35:15.756Z,4.97
2023-05-23T12:39:20.966Z,4.40
2023-05-23T12:43:22.188Z,4.57
2023-05-23T12:47:23.653Z,4.77
2023-05-23T12:51:25.316Z,4.53
2023-05-23T12:55:26.529Z,4.50
2023-05-23T12:59:27.780Z,4.30
2023-05-23T13:03:33.019Z,3.43
2023-05-23T13:07:34.340Z,3.83
2023-05-23T13:11:35.682Z,4.30
2023-05-23T13:15:37.472Z,3.23
2023-05-23T13:19:38.928Z,4.10
2023-05-23T13:23:40.402Z,3.57
2023-05-23T13:27:41.580Z,2.00
2023-05-23T13:31:42.928Z,2.33
2023-05-23T13:35:44.609Z,3.60
2023-05-23T13:39:48.999Z,3.17
2023-05-23T13:43:50.494Z,3.47
2023-05-23T13:47:51.783Z,3.93
2023-05-23T13:51:53.062Z,3.57
2023-05-23T13:55:54.241Z,2.83
2023-05-23T13:59:55.530Z,4.40
2023-05-23T14:03:56.754Z,4.67
2023-05-23T14:07:58.016Z,3.70
2023-05-23T14:11:59.336Z,3.10
2023-05-23T14:16:00.797Z,3.60
2023-05-23T14:20:03.245Z,3.40
2023-05-23T14:24:05.474Z,3.70
2023-05-23T14:28:06.659Z,4.47
2023-05-23T14:32:07.978Z,4.87
2023-05-23T14:36:09.170Z,5.10
2023-05-23T14:40:10.898Z,5.20
2023-05-23T14:44:12.360Z,5.50
2023-05-23T14:48:13.814Z,5.10
2023-05-23T14:52:17.002Z,5.37
2023-05-23T14:56:18.248Z,4.93
2023-05-23T15:00:19.877Z,5.60
2023-05-23T15:04:21.240Z,5.93
2023-05-23T15:08:22.633Z,5.53
2023-05-23T15:12:23.889Z,6.00
2023-05-23T15:16:25.434Z,6.83
2023-05-23T15:20:26.699Z,6.63
2023-05-23T15:24:28.529Z,6.60
2023-05-23T15:28:29.824Z,6.73
2023-05-23T15:32:31.109Z,6.70
2023-05-23T15:36:32.362Z,6.57
2023-05-23T15:40:33.616Z,7.00
2023-05-23T15:44:34.963Z,6.10
2023-05-23T15:48:36.153Z,6.60
2023-05-23T15:52:37.459Z,7.00
2023-05-23T15:56:39.009Z,6.60
2023-05-23T16:00:40.470Z,6.43
2023-05-23T16:04:41.839Z,5.50
2023-05-23T16:08:43.134Z,6.90
2023-05-23T16:12:44.345Z,6.53
2023-05-23T16:16:45.627Z,5.60
2023-05-23T16:20:46.959Z,5.87
2023-05-23T16:24:48.164Z,5.57
2023-05-23T16:28:50.159Z,4.60
2023-05-23T16:32:51.510Z,4.90
2023-05-23T16:36:52.718Z,4.80
2023-05-23T16:40:54.638Z,4.10
2023-05-23T16:44:56.167Z,4.77
2023-05-23T16:48:57.475Z,4.90
2023-05-23T16:52:58.662Z,4.33
2023-05-23T16:57:01.114Z,5.10
2023-05-23T17:01:02.461Z,4.90
2023-05-23T17:05:03.974Z,4.90
2023-05-23T17:09:05.246Z,5.33
2023-05-23T17:13:06.573Z,5.03
2023-05-23T17:17:07.771Z,4.77
2023-05-23T17:21:08.992Z,4.73
2023-05-23T17:25:10.243Z,4.37
2023-05-23T17:29:11.460Z,4.00
2023-05-23T17:33:12.793Z,4.27
2023-05-23T17:37:15.024Z,3.77
2023-05-23T17:41:16.351Z,5.10
2023-05-23T17:45:17.780Z,4.17
2023-05-23T17:49:19.006Z,3.70
2023-05-23T17:53:20.213Z,4.23
2023-05-23T17:57:22.119Z,4.30
2023-05-23T18:01:24.140Z,5.13
2023-05-23T18:05:26.099Z,5.43
2023-05-23T18:09:27.434Z,4.27
2023-05-23T18:13:28.660Z,5.33
2023-05-23T18:17:29.945Z,4.37
2023-05-23T18:21:33.100Z,4.33
2023-05-23T18:25:34.319Z,4.20
2023-05-23T18:29:35.963Z,5.67
2023-05-23T18:33:37.201Z,4.37
2023-05-23T18:37:39.344Z,4.43
2023-05-23T18:41:40.864Z,5.00
2023-05-23T18:45:42.870Z,4.87
2023-05-23T18:49:44.212Z,5.00
2023-05-23T18:53:45.926Z,5.73
2023-05-23T18:57:47.255Z,5.90
2023-05-23T19:01:48.721Z,4.60
2023-05-23T19:05:50.380Z,5.50
2023-05-23T19:09:51.681Z,5.20
2023-05-23T19:13:53.048Z,5.33
2023-05-23T19:17:54.378Z,6.13
2023-05-23T19:21:55.654Z,5.03
2023-05-23T19:25:57.011Z,6.03
2023-05-23T19:29:58.331Z,6.20
2023-05-23T19:33:59.654Z,5.17
2023-05-23T19:38:01.392Z,5.10
2023-05-23T19:42:03.036Z,5.77
2023-05-23T19:46:04.649Z,5.20
2023-05-23T19:50:08.732Z,5.30
2023-05-23T19:54:10.598Z,5.70
2023-05-23T19:58:12.175Z,15.70
2023-05-23T20:02:13.482Z,7.33
2023-05-23T20:06:14.889Z,6.37
2023-05-23T20:10:16.225Z,5.60
2023-05-23T20:14:17.685Z,5.97
2023-05-23T20:18:19.911Z,5.67
2023-05-23T20:22:21.223Z,5.50
2023-05-23T20:26:23.441Z,4.87
2023-05-23T20:30:24.869Z,5.63
2023-05-23T20:34:26.895Z,4.83
2023-05-23T20:38:28.558Z,5.73
2023-05-23T20:42:31.754Z,5.90
2023-05-23T20:46:34.981Z,5.40
2023-05-23T20:50:37.455Z,5.80
2023-05-23T20:54:38.839Z,6.10
2023-05-23T20:58:42.040Z,6.30
2023-05-23T21:02:43.797Z,6.00
2023-05-23T21:06:45.192Z,5.43
2023-05-23T21:10:49.868Z,6.03
2023-05-23T21:14:49.758Z,5.90
2023-05-23T21:18:51.203Z,7.60
2023-05-23T21:22:52.472Z,5.60
2023-05-23T21:26:53.874Z,6.00
2023-05-23T21:30:55.224Z,5.47
2023-05-23T21:34:56.520Z,6.50
2023-05-23T21:38:57.805Z,6.57
2023-05-23T21:42:59.283Z,5.60
2023-05-23T21:47:00.725Z,6.30
2023-05-23T21:51:02.417Z,5.60
2023-05-23T21:55:04.279Z,6.13
2023-05-23T21:59:05.673Z,6.73
2023-05-23T22:03:07.125Z,5.03
2023-05-23T22:07:08.753Z,5.33
2023-05-23T22:11:12.028Z,5.13
2023-05-23T22:15:13.491Z,5.00
2023-05-23T22:19:17.433Z,6.00
2023-05-23T22:23:19.186Z,6.07
2023-05-23T22:27:20.699Z,5.70
2023-05-23T22:31:23.204Z,5.20
2023-05-23T22:35:24.565Z,6.07
2023-05-23T22:39:26.188Z,5.80
2023-05-23T22:43:28.571Z,5.90
2023-05-23T22:47:31.747Z,5.93
2023-05-23T22:51:33.451Z,6.20
2023-05-23T22:55:35.067Z,6.17
2023-05-23T22:59:36.449Z,6.50
2023-05-23T23:03:37.821Z,5.77
2023-05-23T23:07:39.285Z,5.77
2023-05-23T23:11:40.633Z,4.97
2023-05-23T23:15:42.354Z,6.13
2023-05-23T23:19:43.688Z,6.67
2023-05-23T23:23:45.036Z,6.43
2023-05-23T23:27:46.427Z,5.60
2023-05-23T23:31:48.159Z,5.10
2023-05-23T23:35:51.256Z,5.70
2023-05-23T23:39:52.627Z,6.00
2023-05-23T23:43:54.021Z,5.70
2023-05-23T23:47:55.514Z,6.23
2023-05-23T23:51:56.964Z,5.87
2023-05-23T23:55:58.441Z,5.23
